createdAt,value
2023-08-14T00:01:05.111Z,100742.78
2023-08-14T00:03:32.496Z,100743.00
2023-08-14T00:05:59.741Z,100744.12
2023-08-14T00:08:26.712Z,100744.12
2023-08-14T00:10:53.622Z,100744.31
2023-08-14T00:13:22.034Z,100737.38
2023-08-14T00:15:49.797Z,100740.00
2023-08-14T00:18:17.039Z,100739.66
2023-08-14T00:20:45.273Z,100740.03
2023-08-14T00:23:12.320Z,100742.37
2023-08-14T00:25:39.911Z,100738.34
2023-08-14T00:28:06.843Z,100732.09
2023-08-14T00:30:33.708Z,100727.25
2023-08-14T00:33:00.729Z,100738.50
2023-08-14T00:35:27.750Z,100742.47
2023-08-14T00:37:54.688Z,100744.00
2023-08-14T00:40:21.688Z,100740.22
2023-08-14T00:42:48.726Z,100741.91
2023-08-14T00:45:16.515Z,100741.97
2023-08-14T00:47:46.885Z,100734.75
2023-08-14T00:50:14.214Z,100744.44
2023-08-14T00:52:44.742Z,100738.50
2023-08-14T00:55:20.039Z,100748.19
2023-08-14T00:57:47.147Z,100747.72
2023-08-14T01:00:15.009Z,100748.59
2023-08-14T01:02:43.455Z,100753.50
2023-08-14T01:05:11.041Z,100761.59
2023-08-14T01:07:38.428Z,100766.53
2023-08-14T01:10:07.423Z,100771.16
2023-08-14T01:13:02.546Z,100778.41
2023-08-14T01:15:50.004Z,100767.09
2023-08-14T01:18:19.006Z,100762.50
2023-08-14T01:21:12.525Z,100760.81
2023-08-14T01:23:48.230Z,100764.53
2023-08-14T01:26:15.683Z,100759.66
2023-08-14T01:28:42.865Z,100760.41
2023-08-14T01:31:09.847Z,100768.63
2023-08-14T01:33:36.804Z,100770.66
2023-08-14T01:36:16.139Z,100771.50
2023-08-14T01:38:52.385Z,100762.13
2023-08-14T01:41:42.339Z,100760.03
2023-08-14T01:44:12.364Z,100768.72
2023-08-14T01:46:44.146Z,100769.03
2023-08-14T01:49:14.903Z,100764.94
2023-08-14T01:51:42.555Z,100773.66
2023-08-14T01:54:10.003Z,100773.84
2023-08-14T01:56:36.940Z,100772.87
2023-08-14T01:59:03.935Z,100774.66
2023-08-14T02:01:30.966Z,100768.59
2023-08-14T02:03:58.013Z,100776.81
2023-08-14T02:06:24.970Z,100766.37
2023-08-14T02:08:51.843Z,100762.87
2023-08-14T02:11:18.834Z,100771.06
2023-08-14T02:13:45.756Z,100770.97
2023-08-14T02:16:12.813Z,100767.50
2023-08-14T02:18:39.755Z,100775.47
2023-08-14T02:21:06.764Z,100775.91
2023-08-14T02:23:33.671Z,100779.37
2023-08-14T02:26:01.854Z,100770.69
2023-08-14T02:28:28.740Z,100776.81
2023-08-14T02:30:55.565Z,100771.63
2023-08-14T02:33:22.493Z,100763.22
2023-08-14T02:35:49.358Z,100763.22
2023-08-14T02:38:16.198Z,100764.22
2023-08-14T02:40:43.079Z,100767.78
2023-08-14T02:43:09.994Z,100766.91
2023-08-14T02:45:37.723Z,100775.94
2023-08-14T02:48:05.091Z,100777.81
2023-08-14T02:50:32.967Z,100771.63
2023-08-14T02:52:59.938Z,100773.53
2023-08-14T02:55:27.192Z,100782.31
2023-08-14T02:57:54.127Z,100783.22
2023-08-14T03:00:21.611Z,100789.59
2023-08-14T03:02:48.961Z,100777.34
2023-08-14T03:05:16.093Z,100776.59
2023-08-14T03:07:42.969Z,100775.03
2023-08-14T03:10:10.044Z,100782.19
2023-08-14T03:12:36.990Z,100785.63
2023-08-14T03:15:05.694Z,100779.87
2023-08-14T03:17:32.683Z,100785.25
2023-08-14T03:19:59.605Z,100787.78
2023-08-14T03:22:26.428Z,100795.06
2023-08-14T03:24:53.378Z,100795.97
2023-08-14T03:27:20.228Z,100802.16
2023-08-14T03:29:47.142Z,100799.63
2023-08-14T03:32:14.070Z,100794.53
2023-08-14T03:34:40.950Z,100804.47
2023-08-14T03:37:09.589Z,100801.97
2023-08-14T03:39:37.689Z,100800.19
2023-08-14T03:42:04.611Z,100806.37
2023-08-14T03:44:31.473Z,100807.16
2023-08-14T03:46:58.404Z,100817.25
2023-08-14T03:49:25.353Z,100815.16
2023-08-14T03:51:52.224Z,100816.03
2023-08-14T03:54:19.189Z,100821.69
2023-08-14T03:56:46.816Z,100809.84
2023-08-14T03:59:13.754Z,100817.94
2023-08-14T04:01:44.129Z,100820.53
2023-08-14T04:04:11.450Z,100818.72
2023-08-14T04:06:38.477Z,100810.72
2023-08-14T04:09:06.596Z,100808.88
2023-08-14T04:11:34.251Z,100830.75
2023-08-14T04:14:01.289Z,100830.44
2023-08-14T04:16:42.540Z,100839.19
2023-08-14T04:19:13.835Z,100835.69
2023-08-14T04:21:41.008Z,100842.72
2023-08-14T04:24:09.004Z,100846.25
2023-08-14T04:26:37.943Z,100844.34
2023-08-14T04:29:09.411Z,100852.00
2023-08-14T04:31:41.260Z,100847.41
2023-08-14T04:34:09.612Z,100849.06
2023-08-14T04:36:36.867Z,100843.50
2023-08-14T04:39:05.441Z,100836.09
2023-08-14T04:41:32.308Z,100841.25
2023-08-14T04:43:59.312Z,100840.09
2023-08-14T04:46:49.435Z,100838.97
2023-08-14T04:49:20.680Z,100845.91
2023-08-14T04:51:47.543Z,100845.78
2023-08-14T04:54:14.402Z,100851.06
2023-08-14T04:56:41.429Z,100847.44
2023-08-14T04:59:08.348Z,100837.44
2023-08-14T05:01:35.244Z,100842.62
2023-08-14T05:04:02.149Z,100836.91
2023-08-14T05:06:29.092Z,100835.06
2023-08-14T05:08:55.942Z,100848.25
2023-08-14T05:11:22.810Z,100844.31
2023-08-14T05:13:49.700Z,100849.31
2023-08-14T05:16:16.580Z,100851.66
2023-08-14T05:18:43.591Z,100855.62
2023-08-14T05:21:10.409Z,100855.44
2023-08-14T05:23:37.354Z,100847.19
2023-08-14T05:26:04.250Z,100854.19
2023-08-14T05:28:31.201Z,100864.41
2023-08-14T05:30:58.087Z,100858.66
2023-08-14T05:33:25.014Z,100857.34
2023-08-14T05:35:51.943Z,100850.03
2023-08-14T05:38:18.873Z,100853.91
2023-08-14T05:40:45.702Z,100874.72
2023-08-14T05:43:13.795Z,100868.91
2023-08-14T05:45:44.697Z,100865.00
2023-08-14T05:48:12.821Z,100868.03
2023-08-14T05:50:40.677Z,100872.06
2023-08-14T05:53:09.081Z,100868.84
2023-08-14T05:55:41.105Z,100871.06
2023-08-14T05:58:08.532Z,100866.25
2023-08-14T06:00:37.043Z,100867.66
2023-08-14T06:03:05.443Z,100868.09
2023-08-14T06:05:35.302Z,100872.94
2023-08-14T06:08:03.348Z,100875.06
2023-08-14T06:10:30.456Z,100873.63
2023-08-14T06:12:57.325Z,100876.84
2023-08-14T06:15:26.092Z,100877.41
2023-08-14T06:17:53.734Z,100883.06
2023-08-14T06:20:21.564Z,100885.25
2023-08-14T06:22:48.754Z,100880.19
2023-08-14T06:25:17.871Z,100885.13
2023-08-14T06:27:44.883Z,100894.28
2023-08-14T06:30:12.610Z,100890.09
2023-08-14T06:32:40.277Z,100894.16
2023-08-14T06:35:08.075Z,100893.53
2023-08-14T06:37:35.599Z,100888.91
2023-08-14T06:40:04.737Z,100890.81
2023-08-14T06:42:32.013Z,100886.94
2023-08-14T06:44:59.048Z,100886.97
2023-08-14T06:47:26.226Z,100886.66
2023-08-14T06:52:20.475Z,100888.97
2023-08-14T06:54:47.694Z,100888.59
2023-08-14T06:57:14.703Z,100888.09
2023-08-14T06:59:41.575Z,100887.56
2023-08-14T07:02:08.453Z,100874.16
2023-08-14T07:04:35.408Z,100895.59
2023-08-14T07:07:02.309Z,100892.09
2023-08-14T07:09:29.556Z,100895.94
2023-08-14T07:11:56.409Z,100884.34
2023-08-14T07:14:23.347Z,100897.81
2023-08-14T07:16:50.348Z,100896.09
2023-08-14T07:19:18.859Z,100895.47
2023-08-14T07:21:46.377Z,100895.41
2023-08-14T07:24:13.825Z,100894.69
2023-08-14T07:26:42.209Z,100893.06
2023-08-14T07:29:09.721Z,100899.41
2023-08-14T07:31:36.651Z,100890.53
2023-08-14T07:34:03.600Z,100883.47
2023-08-14T07:36:30.473Z,100887.25
2023-08-14T07:38:57.435Z,100887.22
2023-08-14T07:41:24.301Z,100890.53
2023-08-14T07:43:51.235Z,100892.62
2023-08-14T07:46:19.499Z,100895.53
2023-08-14T07:48:46.661Z,100896.69
2023-08-14T07:51:13.613Z,100897.56
2023-08-14T07:53:40.610Z,100900.38
2023-08-14T07:56:07.545Z,100894.44
2023-08-14T07:58:34.396Z,100880.22
2023-08-14T08:01:01.412Z,100887.34
2023-08-14T08:03:28.368Z,100887.69
2023-08-14T08:05:55.411Z,100882.38
2023-08-14T08:08:22.545Z,100886.19
2023-08-14T08:10:49.585Z,100882.75
2023-08-14T08:13:16.482Z,100885.25
2023-08-14T08:15:43.564Z,100874.94
2023-08-14T08:18:10.545Z,100880.69
2023-08-14T08:20:37.566Z,100888.09
2023-08-14T08:23:05.287Z,100885.97
2023-08-14T08:25:32.214Z,100883.44
2023-08-14T08:27:59.417Z,100892.72
2023-08-14T08:30:26.300Z,100897.94
2023-08-14T08:32:53.278Z,100888.63
2023-08-14T08:35:20.363Z,100898.47
2023-08-14T08:37:47.230Z,100894.34
2023-08-14T08:40:14.170Z,100899.13
2023-08-14T08:42:41.237Z,100899.44
2023-08-14T08:45:10.455Z,100898.81
2023-08-14T08:47:40.622Z,100902.44
2023-08-14T08:50:09.064Z,100894.09
2023-08-14T08:52:36.272Z,100895.63
2023-08-14T08:55:04.103Z,100892.56
2023-08-14T08:57:31.972Z,100890.97
2023-08-14T09:00:00.685Z,100887.03
2023-08-14T09:02:28.065Z,100889.31
2023-08-14T09:04:55.251Z,100887.78
2023-08-14T09:07:22.343Z,100877.31
2023-08-14T09:09:49.445Z,100876.88
2023-08-14T09:12:16.688Z,100879.41
2023-08-14T09:14:46.432Z,100872.00
2023-08-14T09:17:14.548Z,100869.81
2023-08-14T09:19:42.738Z,100869.25
2023-08-14T09:22:09.699Z,100865.47
2023-08-14T09:24:37.095Z,100864.03
2023-08-14T09:27:04.588Z,100865.72
2023-08-14T09:29:32.863Z,100866.50
2023-08-14T09:32:00.847Z,100865.09
2023-08-14T09:34:28.678Z,100853.59
2023-08-14T09:36:56.520Z,100859.84
2023-08-14T09:39:24.937Z,100861.09
2023-08-14T09:41:51.899Z,100855.41
2023-08-14T09:44:24.539Z,100862.22
2023-08-14T09:46:53.308Z,100859.22
2023-08-14T09:49:20.371Z,100853.87
2023-08-14T09:52:00.269Z,100849.25
2023-08-14T09:54:35.391Z,100845.09
2023-08-14T09:57:09.662Z,100848.56
2023-08-14T09:59:37.744Z,100858.69
2023-08-14T10:02:09.916Z,100852.81
2023-08-14T10:04:38.397Z,100847.34
2023-08-14T10:07:05.539Z,100843.75
2023-08-14T10:09:33.892Z,100846.97
2023-08-14T10:12:07.433Z,100840.72
2023-08-14T10:14:37.150Z,100831.19
2023-08-14T10:17:07.930Z,100840.78
2023-08-14T10:19:36.589Z,100835.75
2023-08-14T10:22:07.479Z,100836.03
2023-08-14T10:24:38.757Z,100835.34
2023-08-14T10:27:06.290Z,100834.63
2023-08-14T10:29:36.138Z,100818.50
2023-08-14T10:32:04.923Z,100822.03
2023-08-14T10:34:33.051Z,100820.66
2023-08-14T10:36:59.928Z,100820.25
2023-08-14T10:39:35.867Z,100825.09
2023-08-14T10:42:09.881Z,100813.22
2023-08-14T10:44:37.451Z,100805.75
2023-08-14T10:47:09.119Z,100805.66
2023-08-14T10:49:56.193Z,100796.19
2023-08-14T10:52:23.396Z,100805.59
2023-08-14T10:54:52.386Z,100799.66
2023-08-14T10:57:29.257Z,100792.00
2023-08-14T10:59:57.569Z,100795.53
2023-08-14T11:02:26.402Z,100787.91
2023-08-14T11:05:13.771Z,100793.50
2023-08-14T11:07:40.749Z,100785.59
2023-08-14T11:10:14.242Z,100787.19
2023-08-14T11:12:41.159Z,100778.75
2023-08-14T11:15:08.787Z,100779.53
2023-08-14T11:17:36.427Z,100773.34
2023-08-14T11:20:03.744Z,100778.50
2023-08-14T11:22:30.686Z,100772.34
2023-08-14T11:24:57.932Z,100758.53
2023-08-14T11:27:25.702Z,100767.81
2023-08-14T11:29:54.784Z,100762.00
2023-08-14T11:32:24.824Z,100758.38
2023-08-14T11:34:52.767Z,100759.88
2023-08-14T11:37:20.018Z,100764.56
2023-08-14T11:39:47.728Z,100760.78
2023-08-14T11:42:14.729Z,100762.37
2023-08-14T11:44:41.668Z,100752.16
2023-08-14T11:47:09.085Z,100751.38
2023-08-14T11:49:37.987Z,100755.91
2023-08-14T11:52:05.275Z,100747.19
2023-08-14T11:54:33.649Z,100749.09
2023-08-14T11:57:04.714Z,100746.91
2023-08-14T11:59:32.676Z,100741.00
2023-08-14T12:01:59.815Z,100750.09
2023-08-14T12:04:26.746Z,100740.97
2023-08-14T12:06:55.897Z,100747.56
2023-08-14T12:09:29.172Z,100741.50
2023-08-14T12:11:56.187Z,100741.28
2023-08-14T12:14:23.241Z,100739.09
2023-08-14T12:16:50.205Z,100738.31
2023-08-14T12:19:21.282Z,100736.69
2023-08-14T12:21:56.731Z,100737.09
2023-08-14T12:24:24.609Z,100740.53
2023-08-14T12:26:51.658Z,100740.69
2023-08-14T12:29:19.245Z,100738.69
2023-08-14T12:31:48.011Z,100742.59
2023-08-14T12:34:15.613Z,100734.88
2023-08-14T12:36:42.568Z,100726.97
2023-08-14T12:39:09.544Z,100723.75
2023-08-14T12:41:36.568Z,100729.50
2023-08-14T12:44:04.142Z,100724.63
2023-08-14T12:46:31.352Z,100719.50
2023-08-14T12:48:58.251Z,100726.53
2023-08-14T12:51:25.091Z,100721.19
2023-08-14T12:53:52.149Z,100724.22
2023-08-14T12:56:19.346Z,100712.81
2023-08-14T12:58:49.980Z,100713.12
2023-08-14T13:01:17.262Z,100704.66
2023-08-14T13:03:44.336Z,100716.91
2023-08-14T13:06:11.482Z,100714.22
2023-08-14T13:08:38.622Z,100708.91
2023-08-14T13:11:05.534Z,100687.34
2023-08-14T13:13:32.597Z,100702.88
2023-08-14T13:16:00.223Z,100693.94
2023-08-14T13:18:27.131Z,100700.88
2023-08-14T13:20:54.088Z,100701.47
2023-08-14T13:23:21.173Z,100698.94
2023-08-14T13:25:48.188Z,100699.44
2023-08-14T13:28:15.120Z,100693.31
2023-08-14T13:30:44.431Z,100692.91
2023-08-14T13:33:14.977Z,100692.47
2023-08-14T13:35:41.904Z,100680.22
2023-08-14T13:38:09.193Z,100679.38
2023-08-14T13:40:36.816Z,100679.03
2023-08-14T13:43:04.378Z,100678.69
2023-08-14T13:45:31.969Z,100680.75
2023-08-14T13:47:59.325Z,100688.44
2023-08-14T13:50:33.184Z,100669.97
2023-08-14T13:53:02.677Z,100673.31
2023-08-14T13:55:31.119Z,100672.03
2023-08-14T13:57:58.509Z,100665.25
2023-08-14T14:00:29.337Z,100657.69
2023-08-14T14:02:58.243Z,100668.69
2023-08-14T14:05:25.678Z,100664.03
2023-08-14T14:07:55.760Z,100661.06
2023-08-14T14:10:25.059Z,100660.13
2023-08-14T14:15:22.002Z,100654.03
2023-08-14T14:17:49.004Z,100646.69
2023-08-14T14:20:17.008Z,100655.16
2023-08-14T14:22:44.365Z,100652.78
2023-08-14T14:25:12.132Z,100646.38
2023-08-14T14:27:39.073Z,100648.31
2023-08-14T14:30:07.404Z,100651.75
2023-08-14T14:32:35.940Z,100638.97
2023-08-14T14:35:04.140Z,100644.44
2023-08-14T14:37:31.653Z,100638.66
2023-08-14T14:39:58.888Z,100642.66
2023-08-14T14:42:26.100Z,100649.06
2023-08-14T14:44:54.941Z,100643.06
2023-08-14T14:47:25.408Z,100637.75
2023-08-14T14:49:53.009Z,100654.78
2023-08-14T14:52:20.573Z,100649.03
2023-08-14T14:54:47.584Z,100639.41
2023-08-14T14:57:14.906Z,100645.47
2023-08-14T14:59:42.922Z,100637.56
2023-08-14T15:02:23.500Z,100638.38
2023-08-14T15:04:50.975Z,100634.75
2023-08-14T15:07:18.407Z,100633.28
2023-08-14T15:09:45.554Z,100640.63
2023-08-14T15:12:12.473Z,100633.41
2023-08-14T15:14:39.326Z,100640.31
2023-08-14T15:17:06.213Z,100632.09
2023-08-14T15:19:33.085Z,100633.28
2023-08-14T15:21:59.966Z,100628.94
2023-08-14T15:24:26.949Z,100626.56
2023-08-14T15:26:53.863Z,100616.50
2023-08-14T15:29:20.740Z,100623.25
2023-08-14T15:31:47.643Z,100628.56
2023-08-14T15:34:14.679Z,100622.78
2023-08-14T15:36:41.554Z,100623.44
2023-08-14T15:39:08.469Z,100621.53
2023-08-14T15:41:35.395Z,100612.97
2023-08-14T15:44:02.243Z,100615.38
2023-08-14T15:46:29.123Z,100612.09
2023-08-14T15:48:55.916Z,100609.66
2023-08-14T15:51:23.002Z,100600.38
2023-08-14T15:53:50.012Z,100602.87
2023-08-14T15:56:16.955Z,100604.22
2023-08-14T15:58:43.831Z,100604.31
2023-08-14T16:01:13.259Z,100602.59
2023-08-14T16:03:40.124Z,100597.44
2023-08-14T16:06:07.346Z,100589.66
2023-08-14T16:08:36.443Z,100595.03
2023-08-14T16:11:03.405Z,100592.34
2023-08-14T16:13:30.284Z,100588.41
2023-08-14T16:15:57.172Z,100594.81
2023-08-14T16:18:24.525Z,100586.75
2023-08-14T16:20:51.519Z,100589.66
2023-08-14T16:23:18.449Z,100579.87
2023-08-14T16:25:45.448Z,100592.25
2023-08-14T16:28:12.427Z,100589.00
2023-08-14T16:30:39.385Z,100590.84
2023-08-14T16:33:06.486Z,100586.72
2023-08-14T16:35:33.485Z,100582.56
2023-08-14T16:38:00.375Z,100588.59
2023-08-14T16:40:27.932Z,100578.09
2023-08-14T16:42:54.907Z,100582.75
2023-08-14T16:45:21.836Z,100578.16
2023-08-14T16:47:48.640Z,100585.19
2023-08-14T16:50:15.576Z,100574.00
2023-08-14T16:52:42.537Z,100574.91
2023-08-14T16:55:09.760Z,100580.34
2023-08-14T16:57:36.651Z,100570.28
2023-08-14T17:00:06.608Z,100574.69
2023-08-14T17:02:36.427Z,100572.16
2023-08-14T17:05:05.778Z,100579.56
2023-08-14T17:07:32.780Z,100569.91
2023-08-14T17:09:59.916Z,100579.31
2023-08-14T17:12:27.040Z,100574.25
2023-08-14T17:14:54.010Z,100585.81
2023-08-14T17:17:21.285Z,100577.50
2023-08-14T17:19:48.840Z,100588.78
2023-08-14T17:22:15.882Z,100595.44
2023-08-14T17:24:43.018Z,100594.78
2023-08-14T17:27:10.133Z,100586.41
2023-08-14T17:29:37.296Z,100579.56
2023-08-14T17:32:04.696Z,100583.97
2023-08-14T17:34:31.817Z,100578.16
2023-08-14T17:36:59.386Z,100589.28
2023-08-14T17:39:26.387Z,100585.59
2023-08-14T17:41:57.709Z,100592.38
2023-08-14T17:44:25.303Z,100587.84
2023-08-14T17:46:52.620Z,100590.72
2023-08-14T17:49:19.937Z,100591.44
2023-08-14T17:51:47.362Z,100580.59
2023-08-14T17:54:15.017Z,100596.72
2023-08-14T17:56:42.208Z,100601.75
2023-08-14T17:59:09.291Z,100612.47
2023-08-14T18:01:36.939Z,100609.56
2023-08-14T18:04:05.301Z,100615.47
2023-08-14T18:06:32.450Z,100611.88
2023-08-14T18:08:59.779Z,100615.88
2023-08-14T18:11:26.961Z,100624.97
2023-08-14T18:13:54.161Z,100624.53
2023-08-14T18:16:21.313Z,100620.84
2023-08-14T18:18:51.272Z,100625.25
2023-08-14T18:21:27.609Z,100631.41
2023-08-14T18:24:03.630Z,100638.81
2023-08-14T18:26:31.023Z,100641.13
2023-08-14T18:28:58.345Z,100636.91
2023-08-14T18:31:25.986Z,100654.50
2023-08-14T18:33:53.422Z,100658.34
2023-08-14T18:36:20.651Z,100656.75
2023-08-14T18:38:47.813Z,100662.81
2023-08-14T18:41:14.700Z,100657.47
2023-08-14T18:43:41.832Z,100654.59
2023-08-14T18:46:09.331Z,100663.38
2023-08-14T18:48:36.592Z,100660.16
2023-08-14T18:51:04.034Z,100669.88
2023-08-14T18:53:31.768Z,100677.75
2023-08-14T18:55:59.468Z,100678.81
2023-08-14T18:58:27.382Z,100666.00
2023-08-14T19:00:54.866Z,100675.62
2023-08-14T19:03:22.256Z,100686.81
2023-08-14T19:05:49.750Z,100690.12
2023-08-14T19:08:16.939Z,100692.09
2023-08-14T19:10:45.300Z,100687.59
2023-08-14T19:13:12.760Z,100693.66
2023-08-14T19:15:47.472Z,100687.53
2023-08-14T19:18:14.962Z,100689.31
2023-08-14T19:20:43.502Z,100685.81
2023-08-14T19:23:12.007Z,100680.75
2023-08-14T19:25:39.312Z,100684.09
2023-08-14T19:30:39.545Z,100682.28
2023-08-14T19:33:06.975Z,100692.38
2023-08-14T19:35:35.115Z,100684.81
2023-08-14T19:38:02.749Z,100687.31
2023-08-14T19:40:29.889Z,100685.59
2023-08-14T19:42:58.254Z,100689.56
2023-08-14T19:45:26.503Z,100664.41
2023-08-14T19:47:55.588Z,100695.00
2023-08-14T19:50:23.577Z,100689.13
2023-08-14T19:52:51.837Z,100699.53
2023-08-14T19:55:19.162Z,100697.47
2023-08-14T19:57:46.617Z,100700.84
2023-08-14T20:00:14.690Z,100704.94
2023-08-14T20:02:42.154Z,100693.53
2023-08-14T20:05:10.307Z,100706.00
2023-08-14T20:07:38.016Z,100701.97
2023-08-14T20:10:08.779Z,100703.91
2023-08-14T20:12:37.136Z,100701.31
2023-08-14T20:15:06.521Z,100702.53
2023-08-14T20:17:34.051Z,100709.47
2023-08-14T20:20:01.285Z,100697.16
2023-08-14T20:22:28.933Z,100701.03
2023-08-14T20:24:56.216Z,100714.19
2023-08-14T20:27:23.670Z,100710.41
2023-08-14T20:29:51.322Z,100697.72
2023-08-14T20:32:20.368Z,100710.53
2023-08-14T20:34:47.848Z,100710.47
2023-08-14T20:37:14.697Z,100714.63
2023-08-14T20:39:43.377Z,100709.41
2023-08-14T20:42:11.973Z,100695.53
2023-08-14T20:44:39.404Z,100717.09
2023-08-14T20:47:06.819Z,100706.62
2023-08-14T20:49:33.939Z,100716.09
2023-08-14T20:52:01.115Z,100697.84
2023-08-14T20:54:28.301Z,100710.44
2023-08-14T20:56:55.985Z,100721.69
2023-08-14T20:59:23.014Z,100713.31
2023-08-14T21:01:49.881Z,100719.38
2023-08-14T21:04:16.807Z,100717.34
2023-08-14T21:06:43.739Z,100717.16
2023-08-14T21:09:10.662Z,100713.75
2023-08-14T21:11:37.729Z,100718.13
2023-08-14T21:14:04.656Z,100697.78
2023-08-14T21:16:31.535Z,100705.13
2023-08-14T21:18:58.428Z,100701.56
2023-08-14T21:21:25.321Z,100693.81
2023-08-14T21:23:52.205Z,100704.53
2023-08-14T21:26:19.062Z,100704.16
2023-08-14T21:28:46.576Z,100694.22
2023-08-14T21:31:13.621Z,100702.88
2023-08-14T21:33:40.575Z,100703.66
2023-08-14T21:36:09.934Z,100703.12
2023-08-14T21:38:36.864Z,100703.94
2023-08-14T21:41:04.603Z,100689.34
2023-08-14T21:43:31.687Z,100713.31
2023-08-14T21:45:58.653Z,100703.31
2023-08-14T21:48:25.541Z,100714.97
2023-08-14T21:50:52.478Z,100713.25
2023-08-14T21:53:19.964Z,100715.88
2023-08-14T21:55:47.034Z,100710.56
2023-08-14T21:58:14.482Z,100706.22
2023-08-14T22:00:41.486Z,100712.63
2023-08-14T22:03:08.451Z,100711.69
2023-08-14T22:05:35.430Z,100711.59
2023-08-14T22:08:02.379Z,100713.44
2023-08-14T22:10:29.411Z,100713.69
2023-08-14T22:12:56.391Z,100709.94
2023-08-14T22:15:29.922Z,100713.59
2023-08-14T22:18:07.528Z,100711.56
2023-08-14T22:20:34.404Z,100700.63
2023-08-14T22:23:01.349Z,100710.88
2023-08-14T22:25:28.228Z,100700.09
2023-08-14T22:27:55.116Z,100716.91
2023-08-14T22:30:21.971Z,100709.13
2023-08-14T22:32:49.206Z,100715.66
2023-08-14T22:35:16.148Z,100705.91
2023-08-14T22:37:43.296Z,100708.22
2023-08-14T22:40:11.069Z,100699.84
2023-08-14T22:42:37.987Z,100703.91
2023-08-14T22:45:08.851Z,100685.75
2023-08-14T22:47:38.874Z,100701.53
2023-08-14T22:50:06.474Z,100700.81
2023-08-14T22:52:33.882Z,100708.69
2023-08-14T22:55:00.779Z,100708.13
2023-08-14T22:57:27.736Z,100712.09
2023-08-14T22:59:54.579Z,100699.50
2023-08-14T23:02:21.878Z,100713.69
2023-08-14T23:04:48.870Z,100710.06
2023-08-14T23:07:15.822Z,100697.09
2023-08-14T23:09:42.706Z,100711.09
2023-08-14T23:12:09.629Z,100712.91
2023-08-14T23:14:36.491Z,100710.88
2023-08-14T23:17:03.620Z,100706.75
2023-08-14T23:19:30.543Z,100708.59
2023-08-14T23:21:57.490Z,100691.72
2023-08-14T23:24:24.435Z,100707.28
2023-08-14T23:26:51.373Z,100702.72
2023-08-14T23:29:18.351Z,100706.91
2023-08-14T23:31:45.266Z,100701.37
2023-08-14T23:34:12.216Z,100697.81
2023-08-14T23:36:39.193Z,100696.66
2023-08-14T23:39:06.110Z,100699.84
2023-08-14T23:41:33.657Z,100701.16
2023-08-14T23:44:00.709Z,100698.41
2023-08-14T23:46:27.898Z,100695.06
2023-08-14T23:48:54.874Z,100700.44
2023-08-14T23:51:23.385Z,100694.09
2023-08-14T23:53:50.654Z,100694.28
2023-08-14T23:56:17.568Z,100695.22
2023-08-14T23:58:44.478Z,100706.78
